createdAt,value
2022-08-03T07:27:46.842Z,3.30
2022-08-03T07:30:21.347Z,3.37
2022-08-03T07:32:50.804Z,3.53
2022-08-03T07:35:25.104Z,3.60
2022-08-03T07:37:54.960Z,3.67
2022-08-03T07:40:23.550Z,4.33
2022-08-03T07:42:58.302Z,3.70
2022-08-03T07:45:26.867Z,4.50
2022-08-03T07:47:55.184Z,3.40
2022-08-03T07:50:23.717Z,3.60
2022-08-03T07:52:53.506Z,4.07
2022-08-03T07:55:23.970Z,3.97
2022-08-03T07:58:03.044Z,8.97
2022-08-03T08:00:31.228Z,4.70
2022-08-03T08:02:59.461Z,4.50
2022-08-03T08:05:27.996Z,3.37
2022-08-03T08:07:56.205Z,4.30
2022-08-03T08:10:24.326Z,4.60
2022-08-03T08:12:52.506Z,3.30
2022-08-03T08:15:22.009Z,4.07
2022-08-03T08:17:51.922Z,3.60
2022-08-03T08:20:27.766Z,2.70
2022-08-03T08:22:58.094Z,3.20
2022-08-03T08:25:26.503Z,2.70
2022-08-03T08:28:31.372Z,3.33
2022-08-03T08:30:44.100Z,5.13
2022-08-03T08:33:22.164Z,2.83
2022-08-03T08:35:53.002Z,2.67
2022-08-03T08:38:21.036Z,2.42
2022-08-03T08:40:50.064Z,3.10
2022-08-03T08:43:18.063Z,3.10
2022-08-03T08:45:50.029Z,3.38
2022-08-03T08:48:22.801Z,3.38
2022-08-03T08:50:54.542Z,2.58
2022-08-03T08:53:27.293Z,2.95
2022-08-03T08:56:00.762Z,2.53
2022-08-03T08:58:31.396Z,2.13
2022-08-03T09:01:00.891Z,2.20
2022-08-03T09:03:30.024Z,2.33
2022-08-03T09:06:00.818Z,2.67
2022-08-03T09:08:29.886Z,2.45
2022-08-03T09:10:57.931Z,2.47
2022-08-03T09:13:26.281Z,2.03
2022-08-03T09:16:14.632Z,2.42
2022-08-03T09:18:43.437Z,2.20
2022-08-03T09:21:30.556Z,2.00
2022-08-03T09:24:03.242Z,2.00
2022-08-03T09:26:32.896Z,1.83
2022-08-03T09:29:09.322Z,2.63
2022-08-03T09:31:43.779Z,1.85
2022-08-03T09:34:13.196Z,1.80
2022-08-03T09:36:43.592Z,1.95
2022-08-03T09:39:13.614Z,1.77
2022-08-03T09:41:43.760Z,1.73
2022-08-03T09:44:16.210Z,2.20
2022-08-03T09:46:56.714Z,1.95
2022-08-03T09:49:25.932Z,1.83
2022-08-03T09:52:32.074Z,2.00
2022-08-03T09:54:43.682Z,2.15
2022-08-03T09:57:23.679Z,1.95
2022-08-03T10:00:03.062Z,1.60
2022-08-03T10:02:35.608Z,2.40
2022-08-03T10:05:03.870Z,2.00
2022-08-03T10:07:31.919Z,2.30
2022-08-03T10:10:30.425Z,1.92
2022-08-03T10:12:50.406Z,1.48
2022-08-03T10:16:24.944Z,1.60
2022-08-03T10:18:09.181Z,2.10
2022-08-03T10:20:42.401Z,1.95
2022-08-03T10:23:11.776Z,1.70
2022-08-03T10:25:41.409Z,2.38
2022-08-03T10:28:13.165Z,1.80
2022-08-03T10:30:45.112Z,1.73
2022-08-03T10:33:51.568Z,1.73
2022-08-03T10:36:09.628Z,2.15
2022-08-03T10:38:41.662Z,2.08
2022-08-03T10:41:10.821Z,2.22
2022-08-03T10:43:49.555Z,1.63
2022-08-03T10:46:20.694Z,2.05
2022-08-03T10:48:52.574Z,2.17
2022-08-03T10:51:21.131Z,2.25
2022-08-03T10:53:55.017Z,2.10
2022-08-03T10:57:02.627Z,1.92
2022-08-03T11:00:05.063Z,2.35
2022-08-03T11:03:06.293Z,2.17
2022-08-03T11:05:37.610Z,1.63
2022-08-03T11:08:23.810Z,2.67
2022-08-03T11:10:54.020Z,2.35
2022-08-03T11:13:23.698Z,1.92
2022-08-03T11:15:53.502Z,1.80
2022-08-03T11:18:30.751Z,1.88
2022-08-03T11:21:01.488Z,1.70
2022-08-03T11:24:03.357Z,2.28
2022-08-03T11:26:33.955Z,1.90
2022-08-03T11:29:29.016Z,1.90
2022-08-03T11:31:57.098Z,2.83
2022-08-03T11:34:25.444Z,2.92
2022-08-03T11:37:33.253Z,2.80
2022-08-03T11:40:02.822Z,2.05
2022-08-03T11:42:48.118Z,3.00
2022-08-03T11:45:16.796Z,2.70
2022-08-03T11:47:50.751Z,2.20
2022-08-03T11:50:21.329Z,2.60
2022-08-03T11:52:51.798Z,1.70
2022-08-03T11:55:22.010Z,2.10
2022-08-03T11:59:13.118Z,1.85
2022-08-03T12:00:38.475Z,2.58
2022-08-03T12:03:08.402Z,2.00
2022-08-03T12:05:52.333Z,1.77
2022-08-03T12:08:32.755Z,1.70
2022-08-03T12:11:03.152Z,2.10
2022-08-03T12:14:45.531Z,1.60
2022-08-03T12:16:28.767Z,2.22
2022-08-03T12:18:58.445Z,1.90
2022-08-03T12:21:27.125Z,1.88
2022-08-03T12:24:00.956Z,1.88
2022-08-03T12:26:29.725Z,2.60
2022-08-03T12:28:58.545Z,1.98
2022-08-03T12:31:26.784Z,2.33
2022-08-03T12:34:00.299Z,1.98
2022-08-03T12:36:30.835Z,3.92
2022-08-03T12:39:03.568Z,3.25
2022-08-03T12:41:35.371Z,2.80
2022-08-03T12:44:06.621Z,1.80
2022-08-03T12:46:36.013Z,2.10
2022-08-03T12:49:09.333Z,1.88
2022-08-03T12:51:39.140Z,2.00
2022-08-03T12:54:18.420Z,1.88
2022-08-03T12:56:59.784Z,2.42
2022-08-03T12:59:34.723Z,1.90
2022-08-03T13:02:04.603Z,2.13
2022-08-03T13:04:39.200Z,1.65
2022-08-03T13:07:14.107Z,1.95
2022-08-03T13:09:48.081Z,1.92
2022-08-03T13:12:21.033Z,2.55
2022-08-03T13:14:50.587Z,2.17
2022-08-03T13:17:19.159Z,2.53
2022-08-03T13:19:48.350Z,2.60
2022-08-03T13:22:18.838Z,2.63
2022-08-03T13:24:50.280Z,2.47
2022-08-03T13:28:09.863Z,2.17
2022-08-03T13:30:08.584Z,2.13
2022-08-03T13:32:37.554Z,2.17
2022-08-03T13:35:06.810Z,2.42
2022-08-03T13:37:34.959Z,2.53
2022-08-03T13:40:08.231Z,2.00
2022-08-03T13:42:39.897Z,1.65
2022-08-03T13:45:09.238Z,2.13
2022-08-03T13:47:37.876Z,1.83
2022-08-03T13:50:06.472Z,1.98
2022-08-03T13:52:36.187Z,2.20
2022-08-03T13:55:07.558Z,2.33
2022-08-03T13:58:02.349Z,1.98
2022-08-03T14:00:27.776Z,1.83
2022-08-03T14:03:16.464Z,1.88
2022-08-03T14:05:45.187Z,2.67
2022-08-03T14:08:13.534Z,2.00
2022-08-03T14:10:44.606Z,2.28
2022-08-03T14:13:17.634Z,2.00
2022-08-03T14:15:50.909Z,2.33
2022-08-03T14:18:27.917Z,1.75
2022-08-03T14:21:02.013Z,1.80
2022-08-03T14:23:33.487Z,1.88
2022-08-03T14:26:02.933Z,1.92
2022-08-03T14:28:31.379Z,1.80
2022-08-03T14:30:59.526Z,1.90
2022-08-03T14:33:28.377Z,1.75
2022-08-03T14:35:56.990Z,2.60
2022-08-03T14:38:25.410Z,2.28
2022-08-03T14:40:54.115Z,2.33
2022-08-03T14:43:23.526Z,2.22
2022-08-03T14:45:52.495Z,1.95
2022-08-03T14:50:34.226Z,1.65
2022-08-03T14:51:08.660Z,2.20
2022-08-03T14:53:36.693Z,1.80
2022-08-03T14:56:09.643Z,2.40
2022-08-03T14:58:40.067Z,1.65
2022-08-03T15:02:01.767Z,1.52
2022-08-03T15:03:56.563Z,2.40
2022-08-03T15:06:25.364Z,2.15
2022-08-03T15:09:22.437Z,2.13
2022-08-03T15:11:42.343Z,1.60
2022-08-03T15:14:13.493Z,2.17
2022-08-03T15:16:42.817Z,3.65
2022-08-03T15:20:03.743Z,1.83
2022-08-03T15:21:58.825Z,2.22
2022-08-03T15:24:29.342Z,1.65
2022-08-03T15:26:57.318Z,1.90
2022-08-03T15:30:07.717Z,1.73
2022-08-03T15:32:14.732Z,2.00
2022-08-03T15:34:50.297Z,2.28
2022-08-03T15:37:19.387Z,2.17
2022-08-03T15:39:59.158Z,1.83
2022-08-03T15:42:29.655Z,2.00
2022-08-03T15:44:59.341Z,1.63
2022-08-03T15:47:27.540Z,1.90
2022-08-03T15:49:55.634Z,2.38
2022-08-03T15:52:23.693Z,2.00
2022-08-03T15:54:51.731Z,2.00
2022-08-03T15:57:19.961Z,1.88
2022-08-03T15:59:48.374Z,1.75
2022-08-03T16:02:18.133Z,1.80
2022-08-03T16:04:46.144Z,2.33
2022-08-03T16:07:15.937Z,1.60
2022-08-03T16:09:44.387Z,2.15
2022-08-03T16:12:16.363Z,1.67
2022-08-03T16:14:52.915Z,2.50
2022-08-03T16:17:24.436Z,1.92
2022-08-03T16:19:55.219Z,1.92
2022-08-03T16:22:23.895Z,2.10
2022-08-03T16:24:52.181Z,1.40
2022-08-03T16:27:56.822Z,1.80
2022-08-03T16:30:10.350Z,2.00
2022-08-03T16:32:39.955Z,2.00
2022-08-03T16:35:08.987Z,1.95
2022-08-03T16:37:38.995Z,2.10
2022-08-03T16:40:17.329Z,2.20
2022-08-03T16:42:47.851Z,2.05
2022-08-03T16:45:18.185Z,1.95
2022-08-03T16:47:48.273Z,2.40
2022-08-03T16:50:29.923Z,1.98
2022-08-03T16:52:58.056Z,1.73
2022-08-03T16:55:43.275Z,2.22
2022-08-03T16:58:17.949Z,2.10
2022-08-03T17:00:52.919Z,2.25
2022-08-03T17:03:26.808Z,2.55
2022-08-03T17:05:55.580Z,2.00
2022-08-03T17:08:28.157Z,2.10
2022-08-03T17:10:56.863Z,1.70
2022-08-03T17:13:39.216Z,1.92
2022-08-03T17:16:10.373Z,2.00
2022-08-03T17:18:48.064Z,2.20
2022-08-03T17:21:18.735Z,2.15
2022-08-03T17:23:56.180Z,2.55
2022-08-03T17:26:30.543Z,2.13
2022-08-03T17:29:12.632Z,2.17
2022-08-03T17:32:56.610Z,2.13
2022-08-03T17:35:36.901Z,2.25
2022-08-03T17:38:12.009Z,2.33
2022-08-03T17:40:48.130Z,3.00
2022-08-03T17:44:13.735Z,2.25
2022-08-03T17:46:10.902Z,2.60
2022-08-03T17:48:42.182Z,3.05
2022-08-03T17:51:17.278Z,4.28
2022-08-03T17:53:50.666Z,2.60
2022-08-03T17:56:42.413Z,2.53
2022-08-03T17:59:17.498Z,2.38
2022-08-03T18:02:47.709Z,2.22
2022-08-03T18:05:21.781Z,2.30
2022-08-03T18:08:01.690Z,2.40
2022-08-03T18:10:35.167Z,1.88
2022-08-03T18:13:10.555Z,2.28
2022-08-03T18:15:43.579Z,1.48
2022-08-03T18:18:15.246Z,1.63
2022-08-03T18:20:45.776Z,2.00
2022-08-03T18:23:25.508Z,2.50
2022-08-03T18:26:07.832Z,1.90
2022-08-03T18:28:40.837Z,2.70
2022-08-03T18:31:11.891Z,2.33
2022-08-03T18:34:17.325Z,2.47
2022-08-03T18:36:34.344Z,3.00
2022-08-03T18:39:03.212Z,2.28
2022-08-03T18:41:34.628Z,2.03
2022-08-03T18:44:07.286Z,1.80
2022-08-03T18:46:51.090Z,2.95
2022-08-03T18:49:36.151Z,2.33
2022-08-03T18:52:27.572Z,2.13
2022-08-03T18:55:06.529Z,2.33
2022-08-03T18:57:46.370Z,2.90
2022-08-03T19:00:17.156Z,2.58
2022-08-03T19:02:58.778Z,2.20
2022-08-03T19:05:51.608Z,2.58
2022-08-03T19:08:26.848Z,2.35
2022-08-03T19:11:00.718Z,1.98
2022-08-03T19:13:36.310Z,2.53
2022-08-03T19:16:08.723Z,2.78
2022-08-03T19:18:38.870Z,2.67
2022-08-03T19:21:15.440Z,2.33
2022-08-03T19:23:47.529Z,2.60
2022-08-03T19:26:30.006Z,7.05
2022-08-03T19:29:00.381Z,9.48
2022-08-03T19:31:31.228Z,6.38
2022-08-03T19:34:04.830Z,4.65
2022-08-03T19:36:40.477Z,2.60
2022-08-03T19:39:14.300Z,2.37
2022-08-03T19:41:44.631Z,2.97
2022-08-03T19:44:24.838Z,3.58
2022-08-03T19:46:56.934Z,2.80
2022-08-03T19:50:05.345Z,2.85
2022-08-03T19:52:20.821Z,2.13
2022-08-03T19:55:00.263Z,2.72
2022-08-03T19:57:30.301Z,2.47
2022-08-03T20:00:03.423Z,3.00
2022-08-03T20:02:33.548Z,2.50
2022-08-03T20:05:02.628Z,3.83
2022-08-03T20:07:32.930Z,2.63
2022-08-03T20:10:04.311Z,3.10
2022-08-03T20:12:39.311Z,3.00
2022-08-03T20:15:09.134Z,2.87
2022-08-03T20:17:56.521Z,3.20
2022-08-03T20:20:27.957Z,3.03
2022-08-03T20:22:58.451Z,2.90
2022-08-03T20:25:37.971Z,2.93
2022-08-03T20:28:13.841Z,3.23
2022-08-03T20:30:47.291Z,3.90
2022-08-03T20:33:18.779Z,3.53
2022-08-03T20:35:49.661Z,2.60
2022-08-03T20:38:19.519Z,3.07
2022-08-03T20:40:50.251Z,2.77
2022-08-03T20:43:20.002Z,2.73
2022-08-03T20:46:00.232Z,3.07
2022-08-03T20:48:37.452Z,2.90
2022-08-03T20:51:19.549Z,3.83
2022-08-03T20:54:00.395Z,2.87
2022-08-03T20:56:37.992Z,2.60
2022-08-03T20:59:15.011Z,2.50
2022-08-03T21:01:44.454Z,2.90
2022-08-03T21:04:13.503Z,3.00
2022-08-03T21:09:49.396Z,2.50
2022-08-03T21:12:29.321Z,2.73
2022-08-03T21:13:08.029Z,2.67
2022-08-03T21:15:03.318Z,2.77
2022-08-03T21:17:41.661Z,2.80
2022-08-03T21:20:12.263Z,2.60
2022-08-03T21:22:44.602Z,3.53
2022-08-03T21:25:16.203Z,2.63
2022-08-03T21:27:46.905Z,2.63
2022-08-03T21:30:15.442Z,2.27
2022-08-03T21:32:45.525Z,2.00
2022-08-03T21:35:14.962Z,2.53
